createdAt,value
2023-04-02T00:00:06.428Z,82.56
2023-04-02T00:02:33.839Z,84.21
2023-04-02T00:05:19.819Z,84.06
2023-04-02T00:07:51.808Z,84.72
2023-04-02T00:10:35.866Z,83.87
2023-04-02T00:13:04.082Z,84.91
2023-04-02T00:15:31.764Z,85.02
2023-04-02T00:18:00.185Z,84.38
2023-04-02T00:20:28.712Z,84.94
2023-04-02T00:22:56.758Z,84.04
2023-04-02T00:25:28.196Z,85.47
2023-04-02T00:27:56.208Z,85.14
2023-04-02T00:30:23.214Z,84.98
2023-04-02T00:32:50.052Z,85.06
2023-04-02T00:35:26.196Z,84.62
2023-04-02T00:37:53.437Z,85.42
2023-04-02T00:40:26.960Z,83.77
2023-04-02T00:42:56.112Z,84.41
2023-04-02T00:45:29.416Z,84.28
2023-04-02T00:48:13.339Z,84.43
2023-04-02T00:50:42.978Z,84.50
2023-04-02T00:53:17.514Z,84.93
2023-04-02T00:55:44.437Z,85.42
2023-04-02T00:58:34.355Z,84.82
2023-04-02T01:01:01.717Z,84.76
2023-04-02T01:03:39.290Z,83.79
2023-04-02T01:06:11.113Z,84.33
2023-04-02T01:08:56.618Z,84.61
2023-04-02T01:12:08.344Z,84.70
2023-04-02T01:14:40.904Z,86.07
2023-04-02T01:17:18.743Z,84.36
2023-04-02T01:20:08.041Z,84.83
2023-04-02T01:22:35.335Z,84.55
2023-04-02T01:25:04.756Z,84.99
2023-04-02T01:27:39.934Z,84.87
2023-04-02T01:30:08.162Z,85.38
2023-04-02T01:32:35.805Z,84.85
2023-04-02T01:35:02.560Z,85.07
2023-04-02T01:37:58.272Z,84.12
2023-04-02T01:40:46.451Z,84.61
2023-04-02T01:43:33.383Z,84.40
2023-04-02T01:46:05.957Z,85.12
2023-04-02T01:48:32.819Z,84.29
2023-04-02T01:51:01.096Z,84.47
2023-04-02T01:53:30.525Z,85.25
2023-04-02T01:56:00.181Z,83.83
2023-04-02T01:58:31.479Z,84.35
2023-04-02T02:01:12.524Z,85.38
2023-04-02T02:03:42.303Z,84.48
2023-04-02T02:06:13.040Z,85.02
2023-04-02T02:09:03.968Z,84.32
2023-04-02T02:11:32.559Z,84.71
2023-04-02T02:14:05.791Z,84.29
2023-04-02T02:16:41.944Z,84.45
2023-04-02T02:19:21.975Z,84.44
2023-04-02T02:21:56.666Z,83.85
2023-04-02T02:24:31.840Z,84.32
2023-04-02T02:27:13.672Z,83.67
2023-04-02T02:29:42.987Z,84.32
2023-04-02T02:32:13.146Z,85.18
2023-04-02T02:34:46.608Z,83.05
2023-04-02T02:37:23.603Z,83.91
2023-04-02T02:39:55.192Z,83.24
2023-04-02T02:42:25.127Z,83.57
2023-04-02T02:44:54.329Z,83.68
2023-04-02T02:47:29.592Z,83.49
2023-04-02T02:50:07.343Z,82.25
2023-04-02T02:52:38.694Z,82.73
2023-04-02T02:55:10.935Z,82.57
2023-04-02T02:57:43.420Z,83.19
2023-04-02T03:00:16.268Z,82.41
2023-04-02T03:02:44.969Z,81.95
2023-04-02T03:05:19.413Z,82.16
2023-04-02T03:07:46.318Z,83.22
2023-04-02T03:10:13.346Z,82.61
2023-04-02T03:12:54.870Z,81.66
2023-04-02T03:15:34.061Z,82.49
2023-04-02T03:18:08.854Z,83.18
2023-04-02T03:20:48.177Z,82.49
2023-04-02T03:23:28.057Z,82.75
2023-04-02T03:26:16.435Z,82.83
2023-04-02T03:28:47.770Z,82.71
2023-04-02T03:31:24.749Z,82.30
2023-04-02T03:33:56.957Z,82.38
2023-04-02T03:36:31.100Z,84.29
2023-04-02T03:39:12.373Z,82.22
2023-04-02T03:41:48.044Z,82.26
2023-04-02T03:44:26.260Z,82.94
2023-04-02T03:46:57.817Z,81.70
2023-04-02T03:49:31.507Z,81.76
2023-04-02T03:52:13.873Z,81.97
2023-04-02T03:54:53.822Z,82.70
2023-04-02T03:57:37.039Z,82.04
2023-04-02T04:00:17.513Z,82.51
2023-04-02T04:02:55.030Z,82.94
2023-04-02T04:05:28.864Z,83.31
2023-04-02T04:08:02.408Z,83.09
2023-04-02T04:10:30.723Z,83.77
2023-04-02T04:13:06.056Z,83.91
2023-04-02T04:15:43.093Z,84.37
2023-04-02T04:18:35.166Z,83.94
2023-04-02T04:21:05.827Z,84.07
2023-04-02T04:23:36.326Z,84.03
2023-04-02T04:26:12.061Z,84.52
2023-04-02T04:28:47.834Z,84.40
2023-04-02T04:31:18.210Z,84.59
2023-04-02T04:33:50.778Z,85.11
2023-04-02T04:36:32.933Z,84.86
2023-04-02T04:39:06.339Z,85.12
2023-04-02T04:41:37.796Z,85.46
2023-04-02T04:44:08.130Z,85.73
2023-04-02T04:46:58.023Z,85.57
2023-04-02T04:49:28.383Z,86.01
2023-04-02T04:51:58.727Z,85.68
2023-04-02T04:54:29.156Z,86.45
2023-04-02T04:57:01.339Z,86.58
2023-04-02T04:59:42.942Z,86.70
2023-04-02T05:02:20.197Z,86.11
2023-04-02T05:04:52.302Z,85.48
2023-04-02T05:07:26.182Z,86.18
2023-04-02T05:10:18.800Z,86.66
2023-04-02T05:12:59.753Z,85.78
2023-04-02T05:15:36.366Z,85.70
2023-04-02T05:18:42.018Z,86.28
2023-04-02T05:21:21.061Z,86.35
2023-04-02T05:24:18.221Z,85.90
2023-04-02T05:26:47.781Z,85.72
2023-04-02T05:29:22.776Z,85.98
2023-04-02T05:32:04.356Z,85.24
2023-04-02T05:34:37.341Z,85.64
2023-04-02T05:37:07.044Z,85.31
2023-04-02T05:39:34.180Z,85.84
2023-04-02T05:42:06.609Z,86.04
2023-04-02T05:44:49.022Z,86.35
2023-04-02T05:47:23.140Z,85.35
2023-04-02T05:50:12.048Z,85.12
2023-04-02T05:52:52.066Z,84.69
2023-04-02T05:56:03.628Z,84.36
2023-04-02T05:58:48.334Z,83.85
2023-04-02T06:01:29.674Z,83.71
2023-04-02T06:04:28.509Z,83.38
2023-04-02T06:07:12.436Z,83.52
2023-04-02T06:09:56.674Z,83.39
2023-04-02T06:12:38.316Z,83.66
2023-04-02T06:15:07.017Z,83.17
2023-04-02T06:17:46.913Z,82.64
2023-04-02T06:20:16.894Z,82.69
2023-04-02T06:22:47.514Z,84.20
2023-04-02T06:25:33.110Z,82.21
2023-04-02T06:28:04.044Z,81.56
2023-04-02T06:30:37.835Z,81.36
2023-04-02T06:33:05.118Z,81.64
2023-04-02T06:35:34.934Z,82.31
2023-04-02T06:38:06.201Z,81.83
2023-04-02T06:40:52.339Z,80.28
2023-04-02T06:43:33.706Z,80.10
2023-04-02T06:46:06.347Z,79.37
2023-04-02T06:48:34.537Z,80.34
2023-04-02T06:51:08.462Z,79.28
2023-04-02T06:53:47.749Z,80.79
2023-04-02T06:56:48.016Z,80.37
2023-04-02T06:59:16.615Z,78.67
2023-04-02T07:02:16.813Z,79.03
2023-04-02T07:04:43.770Z,78.03
2023-04-02T07:07:10.488Z,77.56
2023-04-02T07:09:37.167Z,78.98
2023-04-02T07:12:11.552Z,79.30
2023-04-02T07:14:38.436Z,76.46
2023-04-02T07:17:05.238Z,77.67
2023-04-02T07:19:31.982Z,77.00
2023-04-02T07:21:59.147Z,75.49
2023-04-02T07:24:25.803Z,75.92
2023-04-02T07:26:52.485Z,74.31
2023-04-02T07:29:20.067Z,73.21
2023-04-02T07:31:46.926Z,74.45
2023-04-02T07:34:13.858Z,73.58
2023-04-02T07:36:40.737Z,72.56
2023-04-02T07:39:07.525Z,73.31
2023-04-02T07:41:34.173Z,73.45
2023-04-02T07:44:00.917Z,73.60
2023-04-02T07:46:27.630Z,71.45
2023-04-02T07:48:54.417Z,70.78
2023-04-02T07:51:24.254Z,71.02
2023-04-02T07:53:56.277Z,73.12
2023-04-02T07:56:25.163Z,69.50
2023-04-02T07:58:51.973Z,71.08
2023-04-02T08:01:27.001Z,69.50
2023-04-02T08:03:55.286Z,68.24
2023-04-02T08:06:23.065Z,68.69
2023-04-02T08:08:50.971Z,69.90
2023-04-02T08:11:17.784Z,70.61
2023-04-02T08:13:44.751Z,68.82
2023-04-02T08:16:11.959Z,69.52
2023-04-02T08:18:39.132Z,70.50
2023-04-02T08:21:08.838Z,67.36
2023-04-02T08:23:36.185Z,68.56
2023-04-02T08:26:03.546Z,65.71
2023-04-02T08:28:30.396Z,67.59
2023-04-02T08:30:57.292Z,67.19
2023-04-02T08:33:24.034Z,67.31
2023-04-02T08:35:51.362Z,66.91
2023-04-02T08:38:21.760Z,66.26
2023-04-02T08:40:56.366Z,66.94
2023-04-02T08:43:39.120Z,65.78
2023-04-02T08:46:08.914Z,66.89
2023-04-02T08:48:40.751Z,66.23
2023-04-02T08:51:23.352Z,64.83
2023-04-02T08:53:52.898Z,64.38
2023-04-02T08:56:29.603Z,65.76
2023-04-02T08:59:25.978Z,64.32
2023-04-02T09:01:57.958Z,64.34
2023-04-02T09:04:26.738Z,64.24
2023-04-02T09:06:56.847Z,64.36
2023-04-02T09:09:25.079Z,63.82
2023-04-02T09:12:04.284Z,63.96
2023-04-02T09:14:42.343Z,61.63
2023-04-02T09:17:21.427Z,61.42
2023-04-02T09:20:19.831Z,62.93
2023-04-02T09:22:48.803Z,62.85
2023-04-02T09:25:21.424Z,63.49
2023-04-02T09:27:54.751Z,64.34
2023-04-02T09:30:33.710Z,65.31
2023-04-02T09:33:08.049Z,62.67
2023-04-02T09:35:37.810Z,60.74
2023-04-02T09:38:22.100Z,61.13
2023-04-02T09:41:02.933Z,63.93
2023-04-02T09:43:38.267Z,58.55
2023-04-02T09:46:06.716Z,59.77
2023-04-02T09:48:40.950Z,60.40
2023-04-02T09:51:16.607Z,61.71
2023-04-02T09:53:46.023Z,58.92
2023-04-02T09:56:20.023Z,59.10
2023-04-02T09:59:04.477Z,58.62
2023-04-02T10:01:35.768Z,58.46
2023-04-02T10:04:04.972Z,57.27
2023-04-02T10:06:34.218Z,58.08
2023-04-02T10:09:21.741Z,58.68
2023-04-02T10:11:50.537Z,56.95
2023-04-02T10:14:24.336Z,57.10
2023-04-02T10:17:12.126Z,58.15
2023-04-02T10:20:06.542Z,57.21
2023-04-02T10:22:33.436Z,59.21
2023-04-02T10:25:00.149Z,57.06
2023-04-02T10:27:44.944Z,59.56
2023-04-02T10:30:16.135Z,58.71
2023-04-02T10:33:03.526Z,58.35
2023-04-02T10:35:47.432Z,57.78
2023-04-02T10:38:34.215Z,57.16
2023-04-02T10:41:19.062Z,55.77
2023-04-02T10:43:55.911Z,57.58
2023-04-02T10:46:33.535Z,58.89
2023-04-02T10:49:13.993Z,56.00
2023-04-02T10:51:59.435Z,57.83
2023-04-02T10:54:44.536Z,56.97
2023-04-02T10:57:36.061Z,56.72
2023-04-02T11:00:11.592Z,54.04
2023-04-02T11:03:03.152Z,54.74
2023-04-02T11:05:46.916Z,54.39
2023-04-02T11:08:48.988Z,51.59
2023-04-02T11:11:20.304Z,55.38
2023-04-02T11:13:55.858Z,52.32
2023-04-02T11:16:23.621Z,53.55
2023-04-02T11:19:19.086Z,53.85
2023-04-02T11:21:59.599Z,57.50
2023-04-02T11:24:30.598Z,55.18
2023-04-02T11:27:14.598Z,53.61
2023-04-02T11:29:45.114Z,54.42
2023-04-02T11:32:22.161Z,54.98
2023-04-02T11:34:56.387Z,56.77
2023-04-02T11:37:39.859Z,55.61
2023-04-02T11:40:14.058Z,52.85
2023-04-02T11:42:41.080Z,50.63
2023-04-02T11:45:22.977Z,53.33
2023-04-02T11:48:08.473Z,52.85
2023-04-02T11:50:40.579Z,52.25
2023-04-02T11:53:16.461Z,52.83
2023-04-02T11:55:44.755Z,54.06
2023-04-02T11:58:29.423Z,54.54
2023-04-02T12:01:20.990Z,55.84
2023-04-02T12:04:02.670Z,53.79
2023-04-02T12:06:47.601Z,55.49
2023-04-02T12:09:28.134Z,52.96
2023-04-02T12:11:58.180Z,50.39
2023-04-02T12:14:36.826Z,51.65
2023-04-02T12:17:21.742Z,51.74
2023-04-02T12:20:20.525Z,50.82
2023-04-02T12:22:51.185Z,50.39
2023-04-02T12:25:33.394Z,50.72
2023-04-02T12:28:14.719Z,50.28
2023-04-02T12:30:41.854Z,52.63
2023-04-02T12:33:20.663Z,50.64
2023-04-02T12:35:49.376Z,51.51
2023-04-02T12:38:26.027Z,49.21
2023-04-02T12:41:04.896Z,48.75
2023-04-02T12:43:34.101Z,48.74
2023-04-02T12:46:06.660Z,48.90
2023-04-02T12:48:35.098Z,48.05
2023-04-02T12:51:04.343Z,49.82
2023-04-02T12:53:40.646Z,49.43
2023-04-02T12:56:11.321Z,48.04
2023-04-02T12:58:41.654Z,50.19
2023-04-02T13:01:18.742Z,46.92
2023-04-02T13:04:07.308Z,46.20
2023-04-02T13:06:35.228Z,47.95
2023-04-02T13:09:05.369Z,46.78
2023-04-02T13:11:41.716Z,47.00
2023-04-02T13:14:18.859Z,45.76
2023-04-02T13:16:46.335Z,48.21
2023-04-02T13:19:33.523Z,48.35
2023-04-02T13:22:03.095Z,45.16
2023-04-02T13:24:32.607Z,45.71
2023-04-02T13:27:01.631Z,46.72
2023-04-02T13:29:28.564Z,46.20
2023-04-02T13:32:01.841Z,44.92
2023-04-02T13:34:28.928Z,45.82
2023-04-02T13:36:57.487Z,46.70
2023-04-02T13:39:24.802Z,43.75
2023-04-02T13:42:03.287Z,43.34
2023-04-02T13:44:32.490Z,44.21
2023-04-02T13:46:59.895Z,42.43
2023-04-02T13:49:27.816Z,43.18
2023-04-02T13:52:00.963Z,42.78
2023-04-02T13:54:49.126Z,41.05
2023-04-02T13:57:16.118Z,41.89
2023-04-02T13:59:43.008Z,40.42
2023-04-02T14:02:14.377Z,38.39
2023-04-02T14:04:48.690Z,39.18
2023-04-02T14:07:32.661Z,37.42
2023-04-02T14:10:28.714Z,37.50
2023-04-02T14:13:08.444Z,37.90
2023-04-02T14:16:04.752Z,35.74
2023-04-02T14:18:46.402Z,37.35
2023-04-02T14:21:43.221Z,35.92
2023-04-02T14:24:19.182Z,36.88
2023-04-02T14:26:57.904Z,36.38
2023-04-02T14:30:03.628Z,35.46
2023-04-02T14:32:55.042Z,34.91
2023-04-02T14:35:28.904Z,34.67
2023-04-02T14:37:58.717Z,35.13
2023-04-02T14:40:49.684Z,34.90
2023-04-02T14:43:23.826Z,33.95
2023-04-02T14:46:00.373Z,35.85
2023-04-02T14:48:36.255Z,33.70
2023-04-02T14:51:18.469Z,33.11
2023-04-02T14:53:58.323Z,33.16
2023-04-02T14:56:26.077Z,35.19
2023-04-02T14:59:22.826Z,33.46
2023-04-02T15:01:54.724Z,34.01
2023-04-02T15:04:31.129Z,33.57
2023-04-02T15:07:05.731Z,35.01
2023-04-02T15:09:38.932Z,35.34
2023-04-02T15:12:23.812Z,33.52
2023-04-02T15:15:40.042Z,35.34
2023-04-02T15:18:17.627Z,33.07
2023-04-02T15:21:08.585Z,32.74
2023-04-02T15:23:44.297Z,33.78
2023-04-02T15:26:13.849Z,33.75
2023-04-02T15:29:29.024Z,32.98
2023-04-02T15:32:16.149Z,32.53
2023-04-02T15:34:57.798Z,34.68
2023-04-02T15:37:49.248Z,35.35
2023-04-02T15:40:21.874Z,34.21
2023-04-02T15:43:14.619Z,34.09
2023-04-02T15:46:04.602Z,34.89
2023-04-02T15:48:55.284Z,34.48
2023-04-02T15:51:33.187Z,33.78
2023-04-02T15:54:20.934Z,33.24
2023-04-02T15:57:18.776Z,35.05
2023-04-02T16:00:04.078Z,35.16
2023-04-02T16:02:46.266Z,36.33
2023-04-02T16:06:13.105Z,38.13
2023-04-02T16:08:45.142Z,35.07
2023-04-02T16:11:14.913Z,36.34
2023-04-02T16:13:43.954Z,37.72
2023-04-02T16:16:26.030Z,35.79
2023-04-02T16:19:16.631Z,35.07
2023-04-02T16:21:54.615Z,35.88
2023-04-02T16:24:21.494Z,38.20
2023-04-02T16:26:57.726Z,40.33
2023-04-02T16:29:27.481Z,41.77
2023-04-02T16:32:05.846Z,43.33
2023-04-02T16:35:01.792Z,43.74
2023-04-02T16:38:24.508Z,47.06
2023-04-02T16:41:07.680Z,46.03
2023-04-02T16:43:49.408Z,45.59
2023-04-02T16:47:10.385Z,46.36
2023-04-02T16:49:47.293Z,45.96
2023-04-02T16:52:13.926Z,45.57
2023-04-02T16:55:12.676Z,45.71
2023-04-02T16:58:06.782Z,46.41
2023-04-02T17:00:50.309Z,45.96
2023-04-02T17:03:41.997Z,47.32
2023-04-02T17:06:29.854Z,46.50
2023-04-02T17:09:05.857Z,46.13
2023-04-02T17:11:48.353Z,45.95
2023-04-02T17:14:21.016Z,47.08
2023-04-02T17:16:51.568Z,46.35
2023-04-02T17:19:20.979Z,47.34
2023-04-02T17:21:52.299Z,47.61
2023-04-02T17:24:28.278Z,48.78
2023-04-02T17:27:00.902Z,48.77
2023-04-02T17:29:35.957Z,49.28
2023-04-02T17:32:06.349Z,48.95
2023-04-02T17:34:33.123Z,49.13
2023-04-02T17:37:23.940Z,50.48
2023-04-02T17:40:02.590Z,49.70
2023-04-02T17:42:35.427Z,51.08
2023-04-02T17:45:11.129Z,51.50
2023-04-02T17:48:13.157Z,51.20
2023-04-02T17:50:49.403Z,52.68
2023-04-02T17:53:25.227Z,52.22
2023-04-02T17:56:27.946Z,54.72
2023-04-02T17:59:49.043Z,51.94
2023-04-02T18:02:43.664Z,53.44
2023-04-02T18:05:10.654Z,54.29
2023-04-02T18:07:47.027Z,54.03
2023-04-02T18:10:25.176Z,54.27
2023-04-02T18:12:55.527Z,53.62
2023-04-02T18:15:58.420Z,53.74
2023-04-02T18:18:50.179Z,55.27
2023-04-02T18:21:58.365Z,56.79
2023-04-02T18:24:43.172Z,54.29
2023-04-02T18:27:22.076Z,56.55
2023-04-02T18:29:48.810Z,56.22
2023-04-02T18:32:53.030Z,58.45
2023-04-02T18:35:25.903Z,55.94
2023-04-02T18:38:13.716Z,56.21
2023-04-02T18:41:05.360Z,56.59
2023-04-02T18:43:44.141Z,57.86
2023-04-02T18:46:22.970Z,56.78
2023-04-02T18:49:00.098Z,56.55
2023-04-02T18:51:32.097Z,57.18
2023-04-02T18:54:35.800Z,57.68
2023-04-02T18:57:14.832Z,55.95
2023-04-02T18:59:48.955Z,57.07
2023-04-02T19:02:34.538Z,57.31
2023-04-02T19:05:13.848Z,58.58
2023-04-02T19:07:43.659Z,60.41
2023-04-02T19:10:31.937Z,60.12
2023-04-02T19:12:58.641Z,59.81
2023-04-02T19:15:38.651Z,63.85
2023-04-02T19:18:28.565Z,61.23
2023-04-02T19:21:07.084Z,60.27
2023-04-02T19:23:37.753Z,61.58
2023-04-02T19:26:14.335Z,60.12
2023-04-02T19:28:46.630Z,60.60
2023-04-02T19:31:33.871Z,61.51
2023-04-02T19:34:12.044Z,60.03
2023-04-02T19:37:02.052Z,61.92
2023-04-02T19:39:53.866Z,61.48
2023-04-02T19:42:29.831Z,61.08
2023-04-02T19:44:57.252Z,62.35
2023-04-02T19:47:24.773Z,60.99
2023-04-02T19:49:51.896Z,60.86
2023-04-02T19:52:19.708Z,61.18
2023-04-02T19:54:46.519Z,61.53
2023-04-02T19:57:15.790Z,63.45
2023-04-02T19:59:42.702Z,62.16
2023-04-02T20:02:10.796Z,63.00
2023-04-02T20:04:38.042Z,62.07
2023-04-02T20:07:04.776Z,62.23
2023-04-02T20:09:31.559Z,63.19
2023-04-02T20:11:58.391Z,62.71
2023-04-02T20:14:25.078Z,62.21
2023-04-02T20:16:52.133Z,62.81
2023-04-02T20:19:19.044Z,61.11
2023-04-02T20:21:45.848Z,61.47
2023-04-02T20:24:12.614Z,61.48
2023-04-02T20:26:39.379Z,61.00
2023-04-02T20:29:06.150Z,61.82
2023-04-02T20:31:34.622Z,61.87
2023-04-02T20:34:02.966Z,59.74
2023-04-02T20:36:30.246Z,58.74
2023-04-02T20:38:57.713Z,58.78
2023-04-02T20:41:24.676Z,57.77
2023-04-02T20:43:51.575Z,57.53
2023-04-02T20:46:18.455Z,57.63
2023-04-02T20:48:45.451Z,57.92
2023-04-02T20:51:14.820Z,58.31
2023-04-02T20:53:41.663Z,57.56
2023-04-02T20:56:14.661Z,57.19
2023-04-02T20:58:42.359Z,56.58
2023-04-02T21:01:16.393Z,58.14
2023-04-02T21:03:43.933Z,58.24
2023-04-02T21:06:16.007Z,56.55
2023-04-02T21:08:43.452Z,56.69
2023-04-02T21:11:11.011Z,56.89
2023-04-02T21:13:38.628Z,57.74
2023-04-02T21:16:21.860Z,57.67
2023-04-02T21:18:51.509Z,59.30
2023-04-02T21:21:19.507Z,57.77
2023-04-02T21:23:46.901Z,57.57
2023-04-02T21:26:16.902Z,58.23
2023-04-02T21:28:44.554Z,57.47
2023-04-02T21:31:38.093Z,58.22
2023-04-02T21:34:06.267Z,58.43
2023-04-02T21:36:35.892Z,58.96
2023-04-02T21:39:06.249Z,59.11
2023-04-02T21:41:38.997Z,60.05
2023-04-02T21:44:07.597Z,59.46
2023-04-02T21:46:39.729Z,59.32
2023-04-02T21:49:08.562Z,60.12
2023-04-02T21:51:37.150Z,59.49
2023-04-02T21:54:04.212Z,60.70
2023-04-02T21:56:33.500Z,61.02
2023-04-02T21:59:02.207Z,59.83
2023-04-02T22:01:35.704Z,60.04
2023-04-02T22:04:05.312Z,60.85
2023-04-02T22:06:37.025Z,60.46
2023-04-02T22:09:07.231Z,61.47
2023-04-02T22:11:36.973Z,62.26
2023-04-02T22:14:04.836Z,63.37
2023-04-02T22:16:33.756Z,61.63
2023-04-02T22:19:02.389Z,62.33
2023-04-02T22:21:31.253Z,62.06
2023-04-02T22:24:02.422Z,62.36
2023-04-02T22:26:31.421Z,62.57
2023-04-02T22:28:58.814Z,62.86
2023-04-02T22:31:28.543Z,62.94
2023-04-02T22:33:57.036Z,64.21
2023-04-02T22:36:25.069Z,63.82
2023-04-02T22:38:52.042Z,64.29
2023-04-02T22:41:25.800Z,64.29
2023-04-02T22:43:55.766Z,63.92
2023-04-02T22:46:23.091Z,63.91
2023-04-02T22:48:50.436Z,64.04
2023-04-02T22:51:20.099Z,64.71
2023-04-02T22:53:47.147Z,64.84
2023-04-02T22:56:20.331Z,64.82
2023-04-02T22:58:47.058Z,65.65
2023-04-02T23:01:43.667Z,65.39
2023-04-02T23:04:10.455Z,65.67
2023-04-02T23:06:37.130Z,65.86
2023-04-02T23:09:04.358Z,66.07
2023-04-02T23:11:31.035Z,66.61
2023-04-02T23:13:58.433Z,66.64
2023-04-02T23:16:28.455Z,67.27
2023-04-02T23:18:56.617Z,65.93
2023-04-02T23:21:24.813Z,66.79
2023-04-02T23:23:52.144Z,67.26
2023-04-02T23:26:21.972Z,66.84
2023-04-02T23:28:49.656Z,68.12
2023-04-02T23:31:19.829Z,67.15
2023-04-02T23:33:46.538Z,67.09
2023-04-02T23:36:33.653Z,67.86
2023-04-02T23:39:09.662Z,68.23
2023-04-02T23:41:38.328Z,67.86
2023-04-02T23:44:05.394Z,67.36
2023-04-02T23:46:33.118Z,68.17
2023-04-02T23:49:00.839Z,67.92
2023-04-02T23:51:29.124Z,68.30
2023-04-02T23:53:56.485Z,68.86
2023-04-02T23:56:23.307Z,69.37
2023-04-02T23:58:51.050Z,69.50
